createdAt,value
2018-06-15T00:03:16.996Z,15
2018-06-15T00:08:16.915Z,15
2018-06-15T00:13:17.166Z,14.9
2018-06-15T00:18:16.837Z,14.9
2018-06-15T00:23:17.023Z,14.8
2018-06-15T00:28:17.208Z,14.8
2018-06-15T00:33:17.074Z,14.8
2018-06-15T00:38:29.779Z,14.8
2018-06-15T00:43:29.646Z,14.8
2018-06-15T00:48:29.684Z,14.8
2018-06-15T00:53:29.717Z,14.7
2018-06-15T00:58:29.510Z,14.7
2018-06-15T01:03:29.515Z,14.7
2018-06-15T01:08:29.502Z,14.6
2018-06-15T01:13:31.416Z,14.6
2018-06-15T01:18:31.313Z,14.5
2018-06-15T01:23:43.861Z,14.5
2018-06-15T01:28:43.586Z,14.4
2018-06-15T01:33:43.819Z,14.5
2018-06-15T01:38:43.739Z,14.5
2018-06-15T01:43:43.805Z,14.5
2018-06-15T01:48:43.847Z,14.4
2018-06-15T01:53:43.741Z,14.5
2018-06-15T01:58:44.617Z,14.5
2018-06-15T02:03:44.362Z,14.5
2018-06-15T02:08:56.656Z,14.4
2018-06-15T02:13:56.498Z,14.4
2018-06-15T02:18:56.510Z,14.5
2018-06-15T02:23:56.397Z,14.3
2018-06-15T02:28:56.513Z,14.3
2018-06-15T02:33:56.512Z,14.4
2018-06-15T02:38:56.535Z,14.4
2018-06-15T02:43:56.402Z,14.4
2018-06-15T02:48:56.508Z,14.4
2018-06-15T02:54:11.200Z,14.3
2018-06-15T02:59:11.101Z,14.3
2018-06-15T03:04:11.020Z,14.2
2018-06-15T03:09:11.083Z,14.2
2018-06-15T03:14:11.112Z,14.2
2018-06-15T03:19:10.937Z,14.1
2018-06-15T03:24:11.110Z,14.1
2018-06-15T03:29:13.343Z,14.1
2018-06-15T03:34:13.198Z,14
2018-06-15T03:39:25.575Z,13.8
2018-06-15T03:44:25.350Z,13.8
2018-06-15T03:49:25.255Z,13.8
2018-06-15T03:54:25.319Z,13.8
2018-06-15T03:59:25.358Z,13.8
2018-06-15T04:04:25.716Z,13.7
2018-06-15T04:09:25.703Z,13.6
2018-06-15T04:14:27.926Z,13.6
2018-06-15T04:19:27.852Z,13.8
2018-06-15T04:24:40.234Z,13.8
2018-06-15T04:29:40.080Z,13.8
2018-06-15T04:34:39.912Z,14
2018-06-15T04:39:40.050Z,14.1
2018-06-15T04:44:39.938Z,14.2
2018-06-15T04:49:39.938Z,14.2
2018-06-15T04:54:40.057Z,14.3
2018-06-15T04:59:41.947Z,14.4
2018-06-15T05:04:41.872Z,14.5
2018-06-15T05:09:53.927Z,14.6
2018-06-15T05:14:53.672Z,14.7
2018-06-15T05:19:53.850Z,14.9
2018-06-15T05:24:53.878Z,14.9
2018-06-15T05:29:53.918Z,15
2018-06-15T05:34:53.840Z,15.2
2018-06-15T05:39:53.879Z,15.3
2018-06-15T05:44:53.660Z,15.3
2018-06-15T05:49:53.717Z,15.3
2018-06-15T05:55:05.491Z,15.5
2018-06-15T06:00:05.382Z,15.6
2018-06-15T06:05:05.417Z,15.8
2018-06-15T06:10:06.352Z,16.1
2018-06-15T06:15:05.374Z,17
2018-06-15T06:20:05.329Z,17.6
2018-06-15T06:25:05.244Z,17.7
2018-06-15T06:30:09.695Z,17.7
2018-06-15T06:35:09.433Z,17.7
2018-06-15T06:40:21.416Z,17.8
2018-06-15T06:45:21.224Z,17.9
2018-06-15T06:50:21.279Z,18
2018-06-15T06:55:21.330Z,18.4
2018-06-15T07:00:21.147Z,18.6
2018-06-15T07:05:21.139Z,18.7
2018-06-15T07:10:21.356Z,18.9
2018-06-15T07:15:26.099Z,19
2018-06-15T07:20:25.987Z,19
2018-06-15T07:25:38.335Z,19.1
2018-06-15T07:30:38.073Z,19.2
2018-06-15T07:35:38.073Z,19.3
2018-06-15T07:40:38.327Z,19.2
2018-06-15T07:45:38.244Z,19.4
2018-06-15T07:50:38.076Z,19.6
2018-06-15T07:55:38.204Z,20
2018-06-15T08:00:38.697Z,19.6
2018-06-15T08:05:38.599Z,19.3
2018-06-15T08:10:50.836Z,20.1
2018-06-15T08:15:50.802Z,19.6
2018-06-15T08:20:50.564Z,19.5
2018-06-15T08:25:50.798Z,19.2
2018-06-15T08:30:50.743Z,19.3
2018-06-15T08:35:50.596Z,19.4
2018-06-15T08:40:51.015Z,20.1
2018-06-15T08:45:56.080Z,19.9
2018-06-15T08:50:55.975Z,19.8
2018-06-15T08:56:09.325Z,20
2018-06-15T09:01:09.272Z,20.1
2018-06-15T09:06:09.189Z,20.4
2018-06-15T09:11:09.042Z,20.6
2018-06-15T09:16:09.260Z,20.3
2018-06-15T09:21:09.050Z,20.2
2018-06-15T09:26:09.241Z,19.9
2018-06-15T09:31:09.051Z,20.4
2018-06-15T09:36:09.194Z,20.8
2018-06-15T09:41:21.025Z,21
2018-06-15T09:46:20.965Z,21.4
2018-06-15T09:51:20.995Z,21.8
2018-06-15T09:56:20.941Z,21
2018-06-15T10:01:20.863Z,21.1
2018-06-15T10:06:20.743Z,20.9
2018-06-15T10:11:20.905Z,20.6
2018-06-15T10:16:20.995Z,20.8
2018-06-15T10:21:20.994Z,20.9
2018-06-15T10:26:33.069Z,21.1
2018-06-15T10:31:32.916Z,21.3
2018-06-15T10:36:32.974Z,21.4
2018-06-15T10:41:32.786Z,21.4
2018-06-15T10:46:33.025Z,21.9
2018-06-15T10:51:32.958Z,22
2018-06-15T10:56:32.996Z,22.4
2018-06-15T11:01:33.107Z,23.3
2018-06-15T11:06:33.051Z,23.1
2018-06-15T11:11:44.862Z,22.3
2018-06-15T11:16:44.817Z,22.7
2018-06-15T11:21:44.695Z,22.8
2018-06-15T11:26:44.765Z,22.8
2018-06-15T11:31:44.810Z,22.9
2018-06-15T11:36:44.722Z,22.9
2018-06-15T11:41:44.756Z,23
2018-06-15T11:46:45.580Z,23.5
2018-06-15T11:51:45.445Z,23.3
2018-06-15T11:56:57.594Z,22.7
2018-06-15T12:01:57.497Z,22.8
2018-06-15T12:06:57.414Z,22.9
2018-06-15T12:11:57.298Z,22.9
2018-06-15T12:16:57.534Z,23
2018-06-15T12:21:57.531Z,23.1
2018-06-15T12:26:57.415Z,22.4
2018-06-15T12:31:58.228Z,22.5
2018-06-15T12:36:58.153Z,22.2
2018-06-15T12:42:10.195Z,22.3
2018-06-15T12:47:10.099Z,23.3
2018-06-15T12:52:10.126Z,23
2018-06-15T12:57:10.199Z,23.1
2018-06-15T13:02:10.079Z,23.4
2018-06-15T13:07:10.118Z,23.8
2018-06-15T13:12:10.155Z,24
2018-06-15T13:17:10.113Z,22.6
2018-06-15T13:22:10.097Z,23.7
2018-06-15T13:27:22.512Z,24.1
2018-06-15T13:32:22.245Z,23.8
2018-06-15T13:37:22.236Z,23.8
2018-06-15T13:42:22.256Z,23.8
2018-06-15T13:47:22.265Z,23.5
2018-06-15T13:52:22.396Z,24.2
2018-06-15T13:57:22.444Z,24.4
2018-06-15T14:02:22.329Z,24.6
2018-06-15T14:07:22.516Z,24.4
2018-06-15T14:12:34.463Z,23.9
2018-06-15T14:17:34.215Z,24.1
2018-06-15T14:22:34.395Z,24.2
2018-06-15T14:27:34.199Z,24.3
2018-06-15T14:32:34.198Z,24.3
2018-06-15T14:37:34.218Z,24.6
2018-06-15T14:42:34.450Z,24.4
2018-06-15T14:47:34.234Z,24.8
2018-06-15T14:52:34.217Z,24.8
2018-06-15T14:57:34.420Z,24.8
2018-06-15T15:02:34.206Z,25
2018-06-15T15:07:34.219Z,24.9
2018-06-15T15:12:34.229Z,24.5
2018-06-15T15:17:34.236Z,24.7
2018-06-15T15:22:45.865Z,24.7
2018-06-15T15:27:45.601Z,24.5
2018-06-15T15:32:45.614Z,24.8
2018-06-15T15:37:45.623Z,24.3
2018-06-15T15:42:45.619Z,24.1
2018-06-15T15:47:48.898Z,24.2
2018-06-15T15:52:45.738Z,24.2
2018-06-15T15:57:47.713Z,24.3
2018-06-15T16:02:47.660Z,24.4
2018-06-15T16:07:59.513Z,24.1
2018-06-15T16:12:59.115Z,23.8
2018-06-15T16:17:59.108Z,23.5
2018-06-15T16:22:59.239Z,23.9
2018-06-15T16:27:59.137Z,23.9
2018-06-15T16:32:59.136Z,23.8
2018-06-15T16:37:59.380Z,23.8
2018-06-15T16:42:59.315Z,23.7
2018-06-15T16:47:59.426Z,23.5
2018-06-15T16:53:11.656Z,23.6
2018-06-15T16:58:11.637Z,23.4
2018-06-15T17:03:11.400Z,23.4
2018-06-15T17:08:11.562Z,23.4
2018-06-15T17:13:11.654Z,23.3
2018-06-15T17:18:11.390Z,23.3
2018-06-15T17:23:11.421Z,23
2018-06-15T17:28:13.788Z,23.2
2018-06-15T17:33:13.636Z,23.1
2018-06-15T17:38:26.752Z,23
2018-06-15T17:43:26.650Z,23
2018-06-15T17:48:26.689Z,22.8
2018-06-15T17:53:26.510Z,22.9
2018-06-15T17:58:26.487Z,22.7
2018-06-15T18:03:26.493Z,22.8
2018-06-15T18:08:26.496Z,22.6
2018-06-15T18:13:28.646Z,22.5
2018-06-15T18:18:28.120Z,22.1
2018-06-15T18:23:40.329Z,21.8
2018-06-15T18:28:40.304Z,21.5
2018-06-15T18:33:40.186Z,21.5
2018-06-15T18:38:40.249Z,21.3
2018-06-15T18:43:40.172Z,21
2018-06-15T18:48:41.281Z,20.8
2018-06-15T18:53:40.182Z,20.6
2018-06-15T18:58:42.403Z,20.3
2018-06-15T19:03:45.056Z,20.2
2018-06-15T19:08:54.686Z,20
2018-06-15T19:13:54.584Z,19.6
2018-06-15T19:18:54.415Z,19.5
2018-06-15T19:23:54.460Z,19.3
2018-06-15T19:28:54.690Z,19.1
2018-06-15T19:33:54.483Z,19
2018-06-15T19:38:54.452Z,18.9
2018-06-15T19:43:57.683Z,18.8
2018-06-15T19:48:57.485Z,18.4
2018-06-15T19:54:09.639Z,18.4
2018-06-15T19:59:09.415Z,18.4
2018-06-15T20:04:09.360Z,18.4
2018-06-15T20:09:09.368Z,18.3
2018-06-15T20:14:09.341Z,18.2
2018-06-15T20:19:09.392Z,18
2018-06-15T20:24:09.327Z,18
2018-06-15T20:29:09.446Z,17.7
2018-06-15T20:34:09.463Z,17.8
2018-06-15T20:39:22.296Z,17.5
2018-06-15T20:44:21.970Z,17.4
2018-06-15T20:49:21.917Z,17.4
2018-06-15T20:54:22.234Z,17.2
2018-06-15T20:59:22.253Z,17
2018-06-15T21:04:22.246Z,16.9
2018-06-15T21:09:22.247Z,16.8
2018-06-15T21:14:22.790Z,16.8
2018-06-15T21:19:22.543Z,16.8
2018-06-15T21:24:34.571Z,16.9
2018-06-15T21:29:34.287Z,16.9
2018-06-15T21:34:34.411Z,16.9
2018-06-15T21:39:34.264Z,16.7
2018-06-15T21:44:34.314Z,16.6
2018-06-15T21:49:34.326Z,16.4
2018-06-15T21:54:34.320Z,16.5
2018-06-15T21:59:35.140Z,16.5
2018-06-15T22:04:34.867Z,16.4
2018-06-15T22:09:46.770Z,16.2
2018-06-15T22:14:46.511Z,16.3
2018-06-15T22:19:46.482Z,16.2
2018-06-15T22:24:46.499Z,16.1
2018-06-15T22:29:46.510Z,16
2018-06-15T22:34:46.455Z,16
2018-06-15T22:39:46.473Z,16.1
2018-06-15T22:44:47.477Z,15.9
2018-06-15T22:49:47.217Z,15.8
2018-06-15T22:54:59.189Z,15.8
2018-06-15T22:59:59.106Z,15.7
2018-06-15T23:04:58.932Z,15.8
2018-06-15T23:09:58.913Z,15.8
2018-06-15T23:14:59.319Z,15.8
2018-06-15T23:19:59.361Z,15.8
2018-06-15T23:24:59.274Z,15.8
2018-06-15T23:29:59.113Z,15.8
2018-06-15T23:34:59.229Z,15.9
2018-06-15T23:40:10.565Z,15.8
2018-06-15T23:45:10.480Z,15.8
2018-06-15T23:50:10.876Z,15.8
2018-06-15T23:55:10.442Z,15.7
